createdAt,value
2023-04-21T00:00:38.898Z,25.07
2023-04-21T00:02:10.303Z,25.65
2023-04-21T00:03:41.930Z,25.09
2023-04-21T00:05:13.576Z,25.67
2023-04-21T00:06:45.016Z,25.34
2023-04-21T00:08:16.521Z,25.14
2023-04-21T00:09:47.879Z,25.09
2023-04-21T00:11:19.111Z,24.78
2023-04-21T00:12:50.320Z,25.13
2023-04-21T00:14:21.627Z,25.46
2023-04-21T00:15:52.916Z,25.74
2023-04-21T00:17:24.325Z,25.54
2023-04-21T00:18:55.801Z,25.98
2023-04-21T00:20:27.516Z,26.11
2023-04-21T00:21:59.107Z,25.96
2023-04-21T00:23:30.436Z,25.82
2023-04-21T00:25:01.943Z,25.77
2023-04-21T00:26:33.302Z,25.83
2023-04-21T00:28:04.804Z,26.36
2023-04-21T00:29:36.050Z,26.98
2023-04-21T00:31:07.456Z,27.07
2023-04-21T00:32:38.865Z,27.41
2023-04-21T00:34:10.109Z,27.14
2023-04-21T00:35:41.767Z,26.10
2023-04-21T00:37:13.066Z,26.38
2023-04-21T00:38:45.512Z,26.89
2023-04-21T00:40:17.561Z,26.34
2023-04-21T00:41:48.982Z,26.60
2023-04-21T00:43:20.420Z,27.01
2023-04-21T00:44:51.821Z,27.23
2023-04-21T00:46:23.354Z,27.22
2023-04-21T00:47:54.736Z,26.86
2023-04-21T00:49:26.208Z,26.90
2023-04-21T00:50:57.792Z,27.66
2023-04-21T00:52:30.937Z,27.71
2023-04-21T00:54:02.326Z,28.22
2023-04-21T00:55:33.828Z,27.95
2023-04-21T00:57:05.235Z,27.41
2023-04-21T00:58:36.964Z,27.27
2023-04-21T01:00:08.492Z,26.84
2023-04-21T01:01:39.877Z,26.69
2023-04-21T01:03:11.648Z,26.50
2023-04-21T01:04:43.109Z,27.02
2023-04-21T01:06:14.497Z,27.20
2023-04-21T01:07:46.290Z,27.29
2023-04-21T01:09:28.636Z,27.13
2023-04-21T01:10:59.949Z,27.70
2023-04-21T01:12:31.655Z,28.44
2023-04-21T01:14:02.845Z,27.97
2023-04-21T01:15:34.119Z,27.68
2023-04-21T01:17:05.432Z,27.72
2023-04-21T01:18:36.697Z,27.93
2023-04-21T01:20:07.876Z,27.74
2023-04-21T01:21:39.118Z,27.24
2023-04-21T01:23:10.334Z,27.86
2023-04-21T01:24:41.963Z,26.85
2023-04-21T01:26:13.276Z,27.59
2023-04-21T01:27:44.701Z,28.43
2023-04-21T01:29:16.041Z,27.81
2023-04-21T01:30:47.416Z,28.14
2023-04-21T01:32:18.689Z,27.96
2023-04-21T01:33:50.042Z,27.83
2023-04-21T01:35:21.262Z,27.86
2023-04-21T01:36:52.765Z,27.96
2023-04-21T01:38:23.946Z,28.48
2023-04-21T01:39:55.203Z,28.37
2023-04-21T01:41:26.466Z,27.84
2023-04-21T01:42:58.028Z,28.37
2023-04-21T01:44:30.242Z,29.30
2023-04-21T01:46:01.789Z,29.36
2023-04-21T01:47:33.061Z,29.61
2023-04-21T01:49:04.450Z,29.70
2023-04-21T01:50:35.791Z,29.28
2023-04-21T01:52:07.173Z,29.56
2023-04-21T01:53:38.579Z,29.92
2023-04-21T01:55:09.876Z,29.06
2023-04-21T01:56:41.119Z,29.33
2023-04-21T01:58:12.507Z,28.92
2023-04-21T01:59:43.712Z,29.54
2023-04-21T02:01:15.278Z,30.11
2023-04-21T02:02:46.937Z,31.31
2023-04-21T02:04:18.628Z,31.16
2023-04-21T02:05:50.215Z,31.81
2023-04-21T02:07:21.713Z,33.06
2023-04-21T02:08:53.311Z,32.06
2023-04-21T02:10:24.529Z,31.52
2023-04-21T02:11:55.909Z,31.44
2023-04-21T02:13:27.106Z,32.06
2023-04-21T02:14:58.427Z,31.57
2023-04-21T02:16:29.890Z,31.93
2023-04-21T02:18:01.392Z,31.12
2023-04-21T02:19:32.722Z,30.98
2023-04-21T02:21:04.120Z,30.88
2023-04-21T02:22:35.437Z,30.69
2023-04-21T02:24:06.818Z,31.04
2023-04-21T02:25:38.273Z,30.44
2023-04-21T02:27:09.549Z,30.16
2023-04-21T02:28:40.830Z,29.87
2023-04-21T02:30:12.355Z,30.29
2023-04-21T02:31:58.935Z,31.28
2023-04-21T02:33:34.717Z,30.51
2023-04-21T02:35:06.454Z,30.70
2023-04-21T02:36:38.107Z,31.20
2023-04-21T02:38:09.301Z,32.40
2023-04-21T02:39:40.528Z,34.12
2023-04-21T02:41:11.988Z,33.87
2023-04-21T02:42:43.349Z,33.13
2023-04-21T02:44:15.273Z,32.94
2023-04-21T02:45:46.710Z,32.63
2023-04-21T02:47:18.020Z,32.41
2023-04-21T02:48:49.347Z,32.27
2023-04-21T02:50:20.648Z,32.05
2023-04-21T02:51:52.109Z,32.26
2023-04-21T02:53:23.502Z,31.81
2023-04-21T02:54:54.766Z,32.28
2023-04-21T02:56:26.059Z,33.35
2023-04-21T02:57:57.294Z,33.33
2023-04-21T02:59:28.571Z,31.12
2023-04-21T03:00:59.907Z,32.31
2023-04-21T03:02:31.657Z,32.74
2023-04-21T03:04:03.137Z,32.75
2023-04-21T03:05:34.593Z,32.80
2023-04-21T03:07:05.798Z,33.58
2023-04-21T03:08:37.102Z,33.64
2023-04-21T03:10:08.377Z,33.80
2023-04-21T03:11:39.614Z,34.40
2023-04-21T03:13:10.904Z,34.04
2023-04-21T03:14:42.148Z,33.63
2023-04-21T03:16:13.690Z,32.34
2023-04-21T03:17:45.082Z,33.18
2023-04-21T03:19:16.618Z,33.49
2023-04-21T03:20:47.983Z,33.72
2023-04-21T03:22:19.474Z,34.07
2023-04-21T03:23:50.672Z,33.36
2023-04-21T03:25:22.097Z,33.21
2023-04-21T03:26:53.653Z,32.95
2023-04-21T03:28:24.916Z,32.10
2023-04-21T03:29:56.204Z,32.46
2023-04-21T03:31:27.443Z,32.31
2023-04-21T03:32:59.093Z,32.45
2023-04-21T03:34:30.431Z,33.01
2023-04-21T03:36:01.895Z,34.05
2023-04-21T03:37:33.251Z,33.37
2023-04-21T03:39:16.888Z,32.99
2023-04-21T03:40:51.154Z,32.56
2023-04-21T03:42:22.539Z,33.03
2023-04-21T03:43:53.771Z,32.80
2023-04-21T03:45:25.114Z,32.70
2023-04-21T03:46:56.832Z,32.58
2023-04-21T03:48:28.275Z,33.42
2023-04-21T03:49:59.527Z,33.36
2023-04-21T03:51:30.970Z,33.81
2023-04-21T03:53:02.211Z,33.53
2023-04-21T03:54:33.448Z,33.36
2023-04-21T03:56:04.916Z,31.81
2023-04-21T03:57:36.256Z,32.62
2023-04-21T03:59:07.745Z,34.37
2023-04-21T04:00:38.972Z,34.51
2023-04-21T04:02:10.361Z,34.47
2023-04-21T04:03:41.900Z,34.70
2023-04-21T04:05:13.663Z,35.01
2023-04-21T04:06:45.142Z,34.31
2023-04-21T04:08:16.528Z,34.84
2023-04-21T04:09:47.735Z,34.88
2023-04-21T04:11:19.849Z,34.41
2023-04-21T04:12:51.399Z,34.10
2023-04-21T04:14:22.923Z,35.17
2023-04-21T04:15:54.426Z,34.93
2023-04-21T04:17:25.846Z,35.35
2023-04-21T04:18:57.233Z,34.77
2023-04-21T04:20:28.673Z,34.06
2023-04-21T04:21:59.947Z,34.31
2023-04-21T04:23:31.159Z,33.31
2023-04-21T04:25:02.478Z,33.53
2023-04-21T04:26:33.872Z,33.58
2023-04-21T04:28:05.154Z,34.96
2023-04-21T04:29:36.506Z,35.39
2023-04-21T04:31:08.087Z,35.70
2023-04-21T04:32:39.527Z,35.47
2023-04-21T04:34:10.979Z,35.43
2023-04-21T04:35:42.227Z,35.13
2023-04-21T04:37:13.391Z,34.37
2023-04-21T04:38:44.995Z,33.98
2023-04-21T04:40:16.605Z,34.39
2023-04-21T04:41:47.964Z,34.48
2023-04-21T04:43:19.193Z,34.58
2023-04-21T04:44:50.519Z,35.01
2023-04-21T04:46:21.869Z,35.04
2023-04-21T04:47:53.387Z,35.22
2023-04-21T04:49:24.764Z,36.10
2023-04-21T04:50:56.131Z,35.71
2023-04-21T04:52:27.444Z,35.44
2023-04-21T04:53:58.940Z,35.72
2023-04-21T04:55:30.317Z,37.08
2023-04-21T04:57:01.963Z,36.22
2023-04-21T04:58:33.321Z,37.41
2023-04-21T05:00:04.515Z,37.26
2023-04-21T05:01:35.860Z,36.50
2023-04-21T05:03:07.234Z,36.40
2023-04-21T05:04:38.716Z,35.53
2023-04-21T05:06:10.018Z,36.01
2023-04-21T05:07:41.265Z,35.81
2023-04-21T05:09:12.611Z,35.49
2023-04-21T05:10:44.030Z,36.08
2023-04-21T05:12:15.353Z,35.33
2023-04-21T05:13:46.650Z,35.79
2023-04-21T05:15:18.390Z,35.85
2023-04-21T05:16:49.747Z,35.68
2023-04-21T05:18:21.105Z,35.51
2023-04-21T05:19:52.443Z,36.32
2023-04-21T05:21:23.745Z,36.83
2023-04-21T05:22:54.974Z,36.18
2023-04-21T05:24:26.384Z,36.23
2023-04-21T05:26:27.779Z,36.89
2023-04-21T05:27:59.906Z,36.69
2023-04-21T05:29:31.206Z,36.06
2023-04-21T05:31:04.060Z,34.87
2023-04-21T05:32:35.761Z,35.34
2023-04-21T05:34:07.101Z,35.95
2023-04-21T05:35:38.341Z,36.58
2023-04-21T05:37:09.507Z,37.06
2023-04-21T05:38:40.732Z,37.72
2023-04-21T05:40:11.926Z,37.12
2023-04-21T05:41:43.175Z,37.21
2023-04-21T05:43:14.525Z,36.62
2023-04-21T05:44:45.832Z,37.31
2023-04-21T05:46:17.058Z,36.92
2023-04-21T05:47:48.599Z,38.04
2023-04-21T05:49:20.247Z,37.40
2023-04-21T05:50:51.547Z,38.07
2023-04-21T05:52:22.829Z,37.54
2023-04-21T05:53:54.039Z,36.76
2023-04-21T05:55:25.477Z,37.32
2023-04-21T05:56:56.816Z,36.78
2023-04-21T05:58:28.094Z,36.77
2023-04-21T05:59:59.379Z,37.07
2023-04-21T06:01:30.722Z,36.70
2023-04-21T06:03:02.276Z,36.53
2023-04-21T06:04:33.828Z,36.88
2023-04-21T06:06:05.197Z,37.87
2023-04-21T06:07:36.932Z,38.66
2023-04-21T06:09:08.307Z,37.56
2023-04-21T06:10:39.588Z,37.76
2023-04-21T06:12:11.572Z,37.31
2023-04-21T06:13:43.715Z,37.49
2023-04-21T06:15:15.103Z,36.80
2023-04-21T06:16:46.663Z,37.17
2023-04-21T06:18:18.041Z,37.19
2023-04-21T06:19:49.285Z,37.33
2023-04-21T06:21:20.605Z,37.52
2023-04-21T06:22:51.872Z,36.31
2023-04-21T06:24:23.164Z,37.53
2023-04-21T06:25:54.478Z,36.58
2023-04-21T06:27:25.717Z,37.42
2023-04-21T06:28:56.979Z,37.59
2023-04-21T06:30:29.423Z,37.10
2023-04-21T06:32:00.858Z,37.24
2023-04-21T06:33:32.104Z,37.39
2023-04-21T06:35:03.292Z,37.73
2023-04-21T06:36:34.564Z,37.55
2023-04-21T06:38:05.856Z,37.04
2023-04-21T06:39:37.294Z,37.19
2023-04-21T06:41:08.589Z,37.32
2023-04-21T06:42:39.828Z,38.36
2023-04-21T06:44:11.089Z,37.69
2023-04-21T06:45:42.457Z,36.98
2023-04-21T06:47:13.779Z,37.33
2023-04-21T06:48:45.176Z,37.62
2023-04-21T06:50:16.708Z,37.16
2023-04-21T06:51:47.948Z,38.54
2023-04-21T06:53:19.380Z,37.56
2023-04-21T06:54:50.597Z,37.51
2023-04-21T06:56:21.957Z,36.95
2023-04-21T06:57:53.321Z,35.92
2023-04-21T06:59:24.984Z,36.28
2023-04-21T07:00:56.610Z,36.11
2023-04-21T07:02:28.209Z,36.62
2023-04-21T07:03:59.966Z,35.27
2023-04-21T07:05:31.380Z,35.26
2023-04-21T07:07:03.461Z,34.07
2023-04-21T07:08:34.932Z,34.65
2023-04-21T07:10:06.174Z,34.19
2023-04-21T07:11:37.827Z,34.42
2023-04-21T07:13:10.197Z,32.38
2023-04-21T07:14:41.522Z,33.31
2023-04-21T07:16:12.778Z,31.49
2023-04-21T07:17:44.163Z,32.17
2023-04-21T07:19:15.701Z,33.84
2023-04-21T07:20:47.161Z,34.15
2023-04-21T07:22:18.577Z,32.05
2023-04-21T07:23:50.071Z,31.53
2023-04-21T07:25:21.534Z,31.98
2023-04-21T07:26:57.850Z,30.47
2023-04-21T07:28:29.104Z,30.34
2023-04-21T07:30:00.477Z,30.71
2023-04-21T07:31:32.047Z,29.89
2023-04-21T07:33:03.995Z,30.01
2023-04-21T07:34:35.442Z,31.18
2023-04-21T07:36:07.572Z,29.79
2023-04-21T07:37:40.168Z,29.64
2023-04-21T07:39:11.685Z,28.70
2023-04-21T07:40:43.094Z,29.10
2023-04-21T07:42:14.416Z,28.24
2023-04-21T07:43:45.787Z,29.05
2023-04-21T07:45:17.060Z,30.33
2023-04-21T07:46:48.572Z,30.19
2023-04-21T07:48:19.992Z,30.21
2023-04-21T07:49:56.430Z,29.62
2023-04-21T07:51:27.913Z,29.32
2023-04-21T07:52:59.185Z,28.79
2023-04-21T07:54:31.769Z,30.25
2023-04-21T07:56:03.370Z,30.03
2023-04-21T07:57:35.013Z,29.98
2023-04-21T07:59:06.421Z,30.55
2023-04-21T08:00:37.768Z,30.96
2023-04-21T08:02:09.139Z,30.37
2023-04-21T08:03:40.770Z,29.83
2023-04-21T08:05:17.474Z,29.51
2023-04-21T08:06:49.026Z,28.61
2023-04-21T08:08:20.414Z,29.16
2023-04-21T08:09:51.862Z,30.20
2023-04-21T08:11:23.461Z,29.61
2023-04-21T08:12:54.810Z,29.55
2023-04-21T08:14:26.147Z,29.08
2023-04-21T08:15:58.034Z,29.24
2023-04-21T08:17:34.738Z,30.08
2023-04-21T08:19:06.165Z,30.35
2023-04-21T08:20:37.560Z,29.57
2023-04-21T08:22:18.990Z,29.59
2023-04-21T08:23:50.252Z,28.62
2023-04-21T08:25:27.754Z,28.48
2023-04-21T08:27:04.092Z,28.96
2023-04-21T08:28:41.414Z,28.31
2023-04-21T08:30:12.944Z,28.45
2023-04-21T08:31:44.497Z,28.76
2023-04-21T08:33:15.924Z,29.33
2023-04-21T08:34:47.305Z,29.12
2023-04-21T08:36:28.788Z,28.45
2023-04-21T08:38:01.745Z,28.23
2023-04-21T08:39:32.995Z,28.43
2023-04-21T08:41:04.277Z,28.14
2023-04-21T08:42:35.612Z,28.52
2023-04-21T08:44:07.052Z,28.14
2023-04-21T08:45:38.399Z,27.71
2023-04-21T08:47:09.786Z,28.07
2023-04-21T08:48:41.502Z,28.17
2023-04-21T08:50:12.918Z,27.84
2023-04-21T08:51:44.428Z,26.99
2023-04-21T08:53:15.794Z,27.06
2023-04-21T08:54:47.230Z,27.82
2023-04-21T08:56:18.620Z,27.31
2023-04-21T08:57:50.152Z,27.18
2023-04-21T08:59:23.026Z,27.47
2023-04-21T09:00:54.488Z,27.50
2023-04-21T09:02:25.951Z,27.98
2023-04-21T09:03:57.458Z,28.12
2023-04-21T09:05:29.189Z,28.18
2023-04-21T09:07:00.644Z,27.72
2023-04-21T09:08:31.933Z,27.60
2023-04-21T09:10:03.299Z,27.62
2023-04-21T09:11:34.666Z,26.91
2023-04-21T09:13:10.989Z,27.16
2023-04-21T09:14:42.466Z,26.75
2023-04-21T09:16:13.989Z,26.77
2023-04-21T09:17:45.353Z,26.41
2023-04-21T09:19:16.786Z,26.62
2023-04-21T09:20:48.287Z,26.70
2023-04-21T09:22:19.622Z,28.00
2023-04-21T09:23:51.015Z,27.61
2023-04-21T09:25:22.723Z,27.46
2023-04-21T09:26:54.067Z,27.05
2023-04-21T09:28:25.325Z,27.14
2023-04-21T09:29:56.615Z,26.61
2023-04-21T09:31:27.943Z,27.14
2023-04-21T09:32:59.510Z,26.07
2023-04-21T09:34:31.740Z,26.67
2023-04-21T09:36:04.535Z,25.60
2023-04-21T09:37:35.977Z,26.89
2023-04-21T09:40:41.814Z,26.18
2023-04-21T09:42:13.094Z,26.20
2023-04-21T09:43:44.436Z,26.03
2023-04-21T09:45:29.088Z,26.41
2023-04-21T09:47:09.092Z,26.60
2023-04-21T09:48:40.393Z,26.08
2023-04-21T09:50:12.742Z,25.23
2023-04-21T09:53:20.353Z,26.33
2023-04-21T09:54:51.724Z,25.86
2023-04-21T09:56:23.007Z,26.08
2023-04-21T09:57:54.300Z,25.87
2023-04-21T09:59:25.571Z,26.42
2023-04-21T10:00:57.045Z,26.11
2023-04-21T10:02:28.497Z,27.24
2023-04-21T10:04:00.116Z,26.49
2023-04-21T10:05:31.745Z,25.95
2023-04-21T10:07:03.274Z,26.16
2023-04-21T10:08:34.648Z,25.54
2023-04-21T10:10:05.974Z,25.14
2023-04-21T10:11:37.314Z,25.67
2023-04-21T10:13:08.676Z,25.16
2023-04-21T10:14:39.952Z,25.46
2023-04-21T10:16:11.295Z,24.09
2023-04-21T10:17:42.788Z,23.08
2023-04-21T10:19:15.148Z,23.92
2023-04-21T10:20:46.460Z,24.34
2023-04-21T10:22:17.967Z,23.88
2023-04-21T10:23:49.416Z,23.04
2023-04-21T10:25:20.744Z,22.53
2023-04-21T10:26:54.828Z,22.89
2023-04-21T10:28:26.711Z,23.96
2023-04-21T10:29:58.013Z,23.26
2023-04-21T10:31:29.879Z,23.46
2023-04-21T10:33:01.295Z,23.08
2023-04-21T10:34:32.773Z,23.96
2023-04-21T10:36:04.132Z,23.79
2023-04-21T10:37:35.590Z,23.64
2023-04-21T10:39:07.158Z,23.18
2023-04-21T10:42:45.354Z,22.62
2023-04-21T10:44:16.727Z,23.15
2023-04-21T10:45:48.021Z,22.01
2023-04-21T10:47:19.665Z,20.77
2023-04-21T10:48:51.067Z,21.64
2023-04-21T10:50:22.471Z,22.14
2023-04-21T10:51:53.938Z,22.59
2023-04-21T10:53:25.266Z,22.17
2023-04-21T10:54:56.604Z,22.22
2023-04-21T10:56:28.006Z,22.27
2023-04-21T10:57:59.508Z,22.85
2023-04-21T10:59:30.905Z,22.00
2023-04-21T11:01:02.234Z,22.23
2023-04-21T11:02:36.561Z,23.05
2023-04-21T11:04:09.935Z,22.44
2023-04-21T11:05:41.323Z,22.50
2023-04-21T11:07:12.730Z,22.01
2023-04-21T11:08:44.024Z,21.40
2023-04-21T11:10:15.506Z,21.70
2023-04-21T11:11:46.873Z,21.48
2023-04-21T11:13:18.178Z,21.97
2023-04-21T11:14:49.577Z,21.31
2023-04-21T11:16:20.930Z,21.45
2023-04-21T11:17:52.479Z,21.42
2023-04-21T11:19:24.328Z,21.91
2023-04-21T11:20:55.711Z,22.03
2023-04-21T11:22:27.200Z,21.23
2023-04-21T11:23:58.529Z,20.94
2023-04-21T11:25:29.951Z,20.88
2023-04-21T11:27:01.425Z,21.55
2023-04-21T11:28:32.904Z,20.95
2023-04-21T11:30:04.590Z,20.44
2023-04-21T11:31:36.106Z,20.82
2023-04-21T11:33:07.537Z,20.81
2023-04-21T11:34:38.911Z,21.26
2023-04-21T11:36:10.480Z,21.39
2023-04-21T11:37:41.932Z,21.44
2023-04-21T11:39:13.314Z,20.96
2023-04-21T11:40:44.653Z,20.64
2023-04-21T11:42:15.975Z,20.41
2023-04-21T11:43:47.511Z,20.59
2023-04-21T11:45:21.946Z,20.55
2023-04-21T11:46:54.084Z,20.50
2023-04-21T11:48:25.533Z,20.75
2023-04-21T11:49:57.214Z,20.09
2023-04-21T11:51:28.589Z,20.42
2023-04-21T11:52:59.930Z,20.55
2023-04-21T11:54:31.237Z,21.06
2023-04-21T11:56:02.558Z,20.12
2023-04-21T11:57:34.196Z,20.46
2023-04-21T11:59:05.628Z,20.56
2023-04-21T12:00:37.089Z,21.64
2023-04-21T12:02:08.463Z,20.84
2023-04-21T12:03:40.001Z,21.51
2023-04-21T12:05:11.411Z,22.23
2023-04-21T12:06:42.850Z,21.59
2023-04-21T12:08:14.287Z,21.31
2023-04-21T12:09:45.835Z,21.58
2023-04-21T12:11:17.251Z,21.57
2023-04-21T12:12:49.257Z,20.62
2023-04-21T12:14:20.713Z,20.92
2023-04-21T12:15:52.489Z,20.37
2023-04-21T12:17:23.859Z,20.23
2023-04-21T12:18:55.365Z,19.86
2023-04-21T12:20:26.780Z,19.65
2023-04-21T12:21:58.171Z,19.24
2023-04-21T12:23:29.511Z,18.72
2023-04-21T12:25:00.841Z,18.72
2023-04-21T12:26:32.353Z,19.08
2023-04-21T12:28:03.946Z,18.71
2023-04-21T12:29:35.438Z,18.01
2023-04-21T12:31:06.874Z,18.06
2023-04-21T12:32:38.354Z,17.61
2023-04-21T12:34:09.982Z,17.70
2023-04-21T12:35:41.581Z,17.64
2023-04-21T12:37:13.058Z,17.34
2023-04-21T12:38:44.689Z,17.54
2023-04-21T12:40:16.182Z,17.13
2023-04-21T12:41:47.765Z,17.58
2023-04-21T12:43:19.422Z,17.21
2023-04-21T12:44:50.921Z,16.50
2023-04-21T12:46:22.342Z,16.57
2023-04-21T12:47:53.946Z,16.78
2023-04-21T12:49:25.366Z,16.12
2023-04-21T12:50:56.920Z,16.39
2023-04-21T12:52:38.394Z,15.75
2023-04-21T12:54:09.993Z,16.06
2023-04-21T12:55:49.683Z,15.97
2023-04-21T12:57:28.538Z,16.25
2023-04-21T12:59:00.294Z,15.99
2023-04-21T13:00:31.924Z,15.02
2023-04-21T13:02:03.598Z,15.19
2023-04-21T13:03:35.280Z,15.08
2023-04-21T13:05:06.802Z,15.35
2023-04-21T13:06:38.228Z,15.32
2023-04-21T13:08:09.583Z,15.15
2023-04-21T13:09:40.978Z,15.33
2023-04-21T13:11:12.369Z,15.05
2023-04-21T13:12:43.798Z,15.06
2023-04-21T13:14:15.670Z,14.68
2023-04-21T13:15:47.373Z,15.39
2023-04-21T13:17:19.126Z,15.05
2023-04-21T13:18:50.746Z,14.73
2023-04-21T13:20:22.565Z,14.81
2023-04-21T13:21:54.452Z,15.16
2023-04-21T13:23:25.983Z,14.77
2023-04-21T13:24:57.440Z,15.14
2023-04-21T13:26:30.187Z,15.73
2023-04-21T13:28:01.697Z,14.46
2023-04-21T13:29:33.490Z,13.91
2023-04-21T13:31:05.062Z,13.82
2023-04-21T13:32:36.710Z,13.32
2023-04-21T13:34:08.535Z,13.91
2023-04-21T13:35:40.053Z,12.97
2023-04-21T13:37:11.596Z,13.21
2023-04-21T13:38:43.081Z,12.98
2023-04-21T13:40:14.615Z,12.77
2023-04-21T13:41:46.099Z,12.48
2023-04-21T13:43:17.700Z,12.51
2023-04-21T13:44:49.150Z,12.80
2023-04-21T13:46:20.725Z,12.70
2023-04-21T13:47:52.375Z,12.74
2023-04-21T13:49:23.948Z,12.36
2023-04-21T13:50:55.645Z,12.15
2023-04-21T13:52:30.587Z,11.82
2023-04-21T13:54:12.107Z,11.52
2023-04-21T13:55:43.945Z,11.82
2023-04-21T13:57:15.636Z,12.08
2023-04-21T13:58:47.186Z,11.99
2023-04-21T14:00:18.878Z,11.81
2023-04-21T14:01:50.528Z,12.05
2023-04-21T14:03:22.334Z,11.39
2023-04-21T14:04:54.215Z,11.19
2023-04-21T14:06:25.829Z,10.71
2023-04-21T14:07:57.250Z,10.71
2023-04-21T14:09:33.884Z,10.10
2023-04-21T14:11:05.644Z,9.86
2023-04-21T14:12:37.234Z,9.81
2023-04-21T14:14:10.246Z,9.33
2023-04-21T14:15:41.969Z,9.35
2023-04-21T14:17:13.538Z,8.93
2023-04-21T14:18:45.110Z,9.15
2023-04-21T14:20:16.597Z,8.92
2023-04-21T14:21:48.037Z,9.12
2023-04-21T14:23:19.587Z,9.18
2023-04-21T14:24:51.125Z,8.76
2023-04-21T14:26:22.772Z,8.70
2023-04-21T14:27:54.316Z,8.50
2023-04-21T14:29:25.835Z,8.23
2023-04-21T14:30:57.349Z,8.08
2023-04-21T14:32:28.946Z,7.87
2023-04-21T14:34:00.664Z,8.09
2023-04-21T14:35:32.196Z,7.81
2023-04-21T14:37:03.708Z,7.87
2023-04-21T14:38:35.382Z,8.13
2023-04-21T14:40:06.949Z,7.91
2023-04-21T14:41:38.451Z,7.50
2023-04-21T14:43:09.914Z,7.15
2023-04-21T14:44:41.448Z,7.40
2023-04-21T14:46:13.088Z,6.88
2023-04-21T14:47:44.955Z,6.94
2023-04-21T14:49:16.830Z,7.47
2023-04-21T14:50:48.482Z,7.51
2023-04-21T14:52:20.070Z,7.09
2023-04-21T14:53:51.770Z,6.97
2023-04-21T14:55:23.353Z,7.19
2023-04-21T14:57:06.706Z,7.00
2023-04-21T14:58:48.906Z,7.99
2023-04-21T15:00:20.527Z,7.44
2023-04-21T15:01:52.047Z,7.98
2023-04-21T15:03:23.689Z,7.99
2023-04-21T15:04:55.599Z,8.14
2023-04-21T15:06:27.248Z,8.06
2023-04-21T15:07:58.767Z,8.27
2023-04-21T15:09:30.304Z,8.37
2023-04-21T15:11:01.966Z,8.45
2023-04-21T15:12:35.974Z,8.96
2023-04-21T15:14:07.903Z,8.67
2023-04-21T15:15:39.397Z,8.73
2023-04-21T15:17:11.785Z,8.95
2023-04-21T15:18:43.305Z,9.26
2023-04-21T15:20:14.749Z,9.58
2023-04-21T15:21:46.170Z,10.04
2023-04-21T15:23:17.614Z,9.84
2023-04-21T15:24:49.103Z,9.49
2023-04-21T15:26:20.589Z,9.40
2023-04-21T15:27:52.195Z,9.49
2023-04-21T15:29:23.605Z,10.02
2023-04-21T15:30:55.033Z,10.13
2023-04-21T15:32:26.576Z,9.81
2023-04-21T15:33:58.104Z,9.98
2023-04-21T15:35:29.524Z,9.99
2023-04-21T15:37:00.984Z,9.47
2023-04-21T15:38:32.371Z,9.08
2023-04-21T15:40:03.835Z,9.01
2023-04-21T15:41:35.245Z,8.87
2023-04-21T15:43:06.627Z,9.42
2023-04-21T15:44:38.129Z,9.05
2023-04-21T15:46:09.543Z,9.11
2023-04-21T15:47:41.076Z,9.35
2023-04-21T15:49:13.859Z,8.79
2023-04-21T15:50:45.438Z,8.91
2023-04-21T15:52:17.055Z,8.84
2023-04-21T15:53:48.550Z,8.87
2023-04-21T15:55:19.977Z,9.07
2023-04-21T15:56:51.606Z,9.18
2023-04-21T15:58:23.080Z,9.77
2023-04-21T15:59:54.614Z,9.47
2023-04-21T16:01:26.115Z,9.98
2023-04-21T16:02:57.885Z,9.84
2023-04-21T16:04:29.591Z,9.48
2023-04-21T16:06:02.019Z,9.34
2023-04-21T16:07:33.666Z,9.56
2023-04-21T16:09:05.207Z,10.13
2023-04-21T16:10:36.757Z,9.61
2023-04-21T16:12:08.288Z,9.61
2023-04-21T16:13:39.755Z,10.15
2023-04-21T16:15:23.704Z,9.82
2023-04-21T16:16:56.036Z,10.49
2023-04-21T16:18:27.652Z,10.60
2023-04-21T16:19:59.267Z,10.89
2023-04-21T16:21:30.866Z,11.25
2023-04-21T16:23:02.245Z,11.03
2023-04-21T16:24:33.888Z,10.80
2023-04-21T16:26:05.690Z,11.22
2023-04-21T16:27:37.337Z,11.65
2023-04-21T16:29:08.836Z,11.31
2023-04-21T16:30:40.240Z,11.41
2023-04-21T16:32:11.655Z,11.31
2023-04-21T16:33:43.726Z,11.63
2023-04-21T16:35:15.321Z,12.03
2023-04-21T16:36:46.881Z,12.97
2023-04-21T16:38:18.309Z,13.37
2023-04-21T16:39:49.808Z,13.41
2023-04-21T16:41:21.368Z,13.45
2023-04-21T16:42:53.000Z,12.28
2023-04-21T16:44:24.864Z,12.74
2023-04-21T16:45:56.277Z,12.09
2023-04-21T16:47:27.947Z,11.81
2023-04-21T16:48:59.647Z,11.57
2023-04-21T16:50:31.306Z,12.10
2023-04-21T16:52:02.826Z,11.16
2023-04-21T16:53:34.302Z,11.22
2023-04-21T16:55:05.718Z,11.32
2023-04-21T16:56:37.263Z,11.00
2023-04-21T16:58:08.699Z,10.90
2023-04-21T16:59:40.117Z,10.59
2023-04-21T17:01:11.596Z,10.18
2023-04-21T17:02:43.378Z,10.52
2023-04-21T17:04:15.185Z,10.57
2023-04-21T17:05:47.142Z,10.46
2023-04-21T17:07:18.581Z,10.24
2023-04-21T17:08:50.063Z,10.57
2023-04-21T17:10:21.921Z,10.60
2023-04-21T17:11:53.636Z,11.09
2023-04-21T17:13:25.132Z,11.19
2023-04-21T17:14:56.555Z,10.79
2023-04-21T17:16:28.184Z,10.66
2023-04-21T17:17:59.767Z,10.67
2023-04-21T17:19:32.090Z,10.57
2023-04-21T17:21:03.740Z,11.00
2023-04-21T17:22:35.280Z,11.01
2023-04-21T17:24:11.682Z,11.07
2023-04-21T17:25:43.132Z,10.58
2023-04-21T17:27:14.728Z,11.08
2023-04-21T17:28:46.233Z,11.00
2023-04-21T17:30:17.775Z,11.37
2023-04-21T17:31:49.218Z,10.61
2023-04-21T17:33:20.693Z,10.88
2023-04-21T17:34:52.274Z,11.09
2023-04-21T17:36:23.661Z,12.32
2023-04-21T17:37:55.136Z,12.39
2023-04-21T17:39:26.580Z,11.79
2023-04-21T17:40:58.185Z,11.66
2023-04-21T17:42:29.550Z,12.05
2023-04-21T17:44:01.037Z,11.79
2023-04-21T17:45:32.481Z,11.71
2023-04-21T17:47:03.876Z,11.82
2023-04-21T17:48:35.331Z,11.95
2023-04-21T17:50:06.869Z,12.20
2023-04-21T17:51:38.459Z,12.38
2023-04-21T17:53:09.808Z,12.31
2023-04-21T17:54:41.310Z,12.58
2023-04-21T17:56:17.857Z,13.02
2023-04-21T17:57:49.261Z,12.83
2023-04-21T17:59:20.650Z,12.55
2023-04-21T18:00:52.017Z,13.06
2023-04-21T18:02:23.488Z,13.62
2023-04-21T18:03:56.496Z,13.34
2023-04-21T18:05:30.013Z,12.98
2023-04-21T18:07:01.552Z,12.95
2023-04-21T18:08:32.944Z,13.38
2023-04-21T18:10:04.264Z,14.14
2023-04-21T18:11:35.653Z,14.03
2023-04-21T18:13:08.098Z,13.03
2023-04-21T18:14:39.771Z,13.19
2023-04-21T18:16:11.392Z,14.33
2023-04-21T18:17:42.896Z,14.80
2023-04-21T18:19:14.378Z,15.26
2023-04-21T18:20:45.918Z,15.24
2023-04-21T18:22:17.426Z,15.71
2023-04-21T18:23:49.085Z,15.00
2023-04-21T18:25:34.363Z,14.56
2023-04-21T18:27:11.994Z,14.71
2023-04-21T18:28:43.377Z,15.06
2023-04-21T18:30:15.391Z,15.06
2023-04-21T18:31:46.905Z,14.92
2023-04-21T18:33:18.353Z,15.15
2023-04-21T18:34:49.809Z,15.69
2023-04-21T18:36:21.148Z,15.81
2023-04-21T18:37:52.754Z,16.62
2023-04-21T18:39:24.133Z,15.62
2023-04-21T18:40:55.529Z,14.99
2023-04-21T18:42:26.961Z,15.32
2023-04-21T18:43:58.499Z,15.38
2023-04-21T18:45:31.071Z,15.16
2023-04-21T18:47:02.524Z,14.54
2023-04-21T18:48:34.209Z,14.45
2023-04-21T18:50:05.601Z,14.51
2023-04-21T18:51:37.402Z,14.68
2023-04-21T18:53:08.844Z,14.40
2023-04-21T18:54:40.339Z,14.72
2023-04-21T18:56:11.757Z,14.51
2023-04-21T18:57:43.261Z,14.86
2023-04-21T18:59:14.654Z,14.96
2023-04-21T19:00:46.068Z,15.42
2023-04-21T19:02:17.557Z,15.50
2023-04-21T19:03:49.519Z,15.50
2023-04-21T19:05:21.172Z,15.49
2023-04-21T19:06:52.712Z,15.35
2023-04-21T19:08:40.633Z,15.24
2023-04-21T19:10:13.226Z,15.71
2023-04-21T19:11:44.633Z,15.42
2023-04-21T19:13:16.055Z,15.77
2023-04-21T19:14:48.284Z,15.99
2023-04-21T19:16:19.717Z,16.32
2023-04-21T19:17:51.214Z,15.99
2023-04-21T19:19:22.710Z,16.48
2023-04-21T19:20:54.085Z,16.28
2023-04-21T19:22:25.588Z,16.76
2023-04-21T19:23:58.254Z,16.43
2023-04-21T19:25:29.647Z,16.46
2023-04-21T19:27:01.014Z,16.42
2023-04-21T19:28:32.487Z,15.71
2023-04-21T19:30:03.964Z,15.82
2023-04-21T19:31:35.709Z,15.12
2023-04-21T19:33:07.134Z,15.66
2023-04-21T19:34:39.170Z,15.18
2023-04-21T19:36:10.729Z,14.38
2023-04-21T19:37:42.134Z,14.12
2023-04-21T19:39:13.507Z,14.82
2023-04-21T19:40:45.206Z,14.21
2023-04-21T19:42:16.598Z,14.89
2023-04-21T19:43:48.054Z,14.98
2023-04-21T19:45:19.492Z,14.82
2023-04-21T19:46:51.065Z,15.71
2023-04-21T19:48:22.591Z,14.57
2023-04-21T19:49:54.065Z,14.86
2023-04-21T19:51:25.389Z,14.54
2023-04-21T19:52:56.771Z,15.04